Time;durP1;ratioP1;P1;durP2;ratioP2;P2;SDS_P1;SDS_P2;PMS_P1;PMS_P2;Temp;Humidity;BMP_temperature;BMP_pressure;BME280_temperature;BME280_humidity;BME280_pressure;Samples;Min_cycle;Max_cycle;Signal;HPM_P1;HPM_P2
2022/11/28 00:02:18;;;;;;;18.10;13.18;;;5.70;99.90;;;;;;5005615;28;20746;-49
2022/11/28 00:04:43;;;;;;;19.17;12.27;;;5.70;99.90;;;;;;5001360;28;20417;-48
2022/11/28 00:07:10;;;;;;;17.58;11.40;;;5.70;99.90;;;;;;5003904;28;20050;-51
2022/11/28 00:09:36;;;;;;;17.08;11.18;;;5.80;99.90;;;;;;5008533;28;20121;-52
2022/11/28 00:12:02;;;;;;;17.80;11.93;;;5.60;99.90;;;;;;5001315;28;20050;-48
2022/11/28 00:14:27;;;;;;;20.08;11.43;;;5.80;99.90;;;;;;5003581;28;20042;-48
2022/11/28 00:16:53;;;;;;;17.95;11.50;;;5.70;99.90;;;;;;5009980;28;22297;-50
2022/11/28 00:19:19;;;;;;;18.50;11.18;;;5.70;99.90;;;;;;5004876;28;20064;-51
2022/11/28 00:21:44;;;;;;;18.63;11.82;;;5.70;99.90;;;;;;5006332;28;20041;-47
2022/11/28 00:24:10;;;;;;;17.30;12.02;;;;;;;;;;5009340;28;20053;-49
2022/11/28 00:26:39;;;;;;;14.85;11.40;;;5.70;99.90;;;;;;5006502;28;20132;-52
2022/11/28 00:29:06;;;;;;;21.25;12.93;;;5.60;99.90;;;;;;5004482;28;20045;-48
2022/11/28 00:31:35;;;;;;;17.13;11.15;;;5.60;99.90;;;;;;5004086;28;20107;-49
2022/11/28 00:34:01;;;;;;;23.95;13.27;;;5.60;99.90;;;;;;5004654;28;20045;-53
2022/11/28 00:36:27;;;;;;;17.85;11.55;;;;;;;;;;5002983;28;20486;-52
2022/11/28 00:38:53;;;;;;;15.98;11.68;;;5.60;99.90;;;;;;5005068;28;20607;-51
2022/11/28 00:41:24;;;;;;;20.75;12.18;;;5.50;99.90;;;;;;5010389;28;20506;-48
2022/11/28 00:43:51;;;;;;;16.43;12.27;;;5.60;99.90;;;;;;5005729;28;20570;-52
2022/11/28 00:46:18;;;;;;;16.75;11.57;;;5.60;99.90;;;;;;5003798;28;20322;-52
2022/11/28 00:48:45;;;;;;;16.88;13.23;;;5.60;99.90;;;;;;5005304;28;20049;-51
2022/11/28 00:51:22;;;;;;;16.98;12.00;;;5.70;99.90;;;;;;5009376;28;20076;-47
2022/11/28 00:53:50;;;;;;;20.10;12.98;;;5.70;99.90;;;;;;5004540;28;20108;-53
2022/11/28 00:56:18;;;;;;;19.48;12.32;;;5.70;99.90;;;;;;5006644;28;20041;-48
2022/11/28 00:58:46;;;;;;;16.15;11.35;;;;;;;;;;5005983;28;20080;-48
2022/11/28 01:01:20;;;;;;;16.73;11.65;;;5.70;99.90;;;;;;5003358;28;20045;-52
2022/11/28 01:03:47;;;;;;;17.17;11.80;;;5.50;99.90;;;;;;5006352;28;20880;-49
2022/11/28 01:06:21;;;;;;;16.08;10.90;;;5.70;99.90;;;;;;5008876;28;20056;-52
2022/11/28 01:08:47;;;;;;;17.40;11.13;;;;;;;;;;5008705;28;20124;-50
2022/11/28 01:11:13;;;;;;;19.90;12.35;;;5.70;99.90;;;;;;4984641;28;20042;-50
2022/11/28 01:13:39;;;;;;;17.20;11.88;;;5.60;99.90;;;;;;5005227;28;20037;-48
2022/11/28 01:16:05;;;;;;;19.17;11.68;;;5.70;99.90;;;;;;5009664;28;20045;-50
2022/11/28 01:18:31;;;;;;;19.55;11.35;;;5.60;99.90;;;;;;5005065;28;20042;-48
2022/11/28 01:20:57;;;;;;;19.90;13.35;;;5.60;99.90;;;;;;5002184;28;20064;-49
2022/11/28 01:23:22;;;;;;;19.60;11.75;;;5.60;99.90;;;;;;5005495;28;20053;-49
2022/11/28 01:25:48;;;;;;;19.42;12.05;;;5.60;99.90;;;;;;5009102;28;20037;-52
2022/11/28 01:28:14;;;;;;;20.58;12.15;;;5.60;99.90;;;;;;5002383;28;20052;-51
2022/11/28 01:30:39;;;;;;;17.58;11.73;;;5.70;99.90;;;;;;5004475;28;20045;-53
2022/11/28 01:33:05;;;;;;;20.15;12.05;;;5.60;99.90;;;;;;5006972;28;20041;-50
2022/11/28 01:35:31;;;;;;;21.40;12.77;;;;;;;;;;5005231;28;19925;-52
2022/11/28 01:37:57;;;;;;;20.92;11.73;;;5.80;99.90;;;;;;5002077;28;20372;-53
2022/11/28 01:40:23;;;;;;;19.88;12.20;;;5.80;99.90;;;;;;5005390;28;20139;-51
2022/11/28 01:42:49;;;;;;;19.83;11.95;;;;;;;;;;5003785;28;20045;-51
2022/11/28 01:45:21;;;;;;;20.65;12.65;;;5.70;99.90;;;;;;5002246;28;20041;-52
2022/11/28 01:47:50;;;;;;;20.52;12.30;;;5.70;99.90;;;;;;5003949;28;20449;-52
2022/11/28 01:50:16;;;;;;;21.67;13.55;;;5.70;99.90;;;;;;5005010;28;20060;-53
2022/11/28 01:52:46;;;;;;;21.40;13.73;;;5.70;99.90;;;;;;5003712;28;20132;-54
2022/11/28 01:55:14;;;;;;;22.60;12.52;;;5.60;99.90;;;;;;5004356;28;20041;-53
2022/11/28 01:57:40;;;;;;;24.23;13.82;;;5.80;99.90;;;;;;5004416;28;20049;-53
2022/11/28 02:00:12;;;;;;;22.67;13.95;;;5.80;99.90;;;;;;5005288;28;20053;-53
2022/11/28 02:02:51;;;;;;;21.67;13.95;;;5.70;99.90;;;;;;5003957;28;20118;-51
2022/11/28 02:05:18;;;;;;;28.00;15.20;;;5.70;99.90;;;;;;5001597;28;20041;-51
2022/11/28 02:07:45;;;;;;;22.95;14.40;;;5.90;99.90;;;;;;4996936;28;20069;-50
2022/11/28 02:10:16;;;;;;;31.40;16.25;;;5.80;99.90;;;;;;5003501;28;20094;-49
2022/11/28 02:13:17;;;;;;;36.80;17.50;;;5.80;99.90;;;;;;5003384;28;20049;-52
2022/11/28 02:15:54;;;;;;;28.70;16.45;;;5.80;99.90;;;;;;5003508;28;20053;-50
2022/11/28 02:18:39;;;;;;;25.25;15.93;;;5.80;99.90;;;;;;5003235;28;20083;-49
2022/11/28 02:21:29;;;;;;;27.63;16.23;;;6.00;99.90;;;;;;5001112;28;20506;-49
2022/11/28 02:24:07;;;;;;;25.67;17.38;;;5.80;99.90;;;;;;5002218;28;20064;-49
2022/11/28 02:26:51;;;;;;;28.65;19.08;;;5.90;99.90;;;;;;5005334;28;20049;-49
2022/11/28 02:29:54;;;;;;;32.35;18.20;;;5.80;99.90;;;;;;5006100;28;20099;-53
2022/11/28 02:32:38;;;;;;;34.65;21.10;;;5.80;99.90;;;;;;5003931;28;20045;-51
2022/11/28 02:35:53;;;;;;;32.35;19.33;;;5.90;99.90;;;;;;5004604;28;20077;-49
2022/11/28 02:38:41;;;;;;;25.80;18.25;;;5.90;99.90;;;;;;4999102;28;20164;-48
2022/11/28 02:41:27;;;;;;;29.80;20.15;;;6.00;99.90;;;;;;5005215;28;20499;-51
2022/11/28 02:44:14;;;;;;;29.67;19.23;;;6.10;99.90;;;;;;5003361;28;20406;-50
2022/11/28 02:46:52;;;;;;;30.88;21.02;;;5.90;99.90;;;;;;5000465;28;20133;-50
2022/11/28 02:49:35;;;;;;;31.08;20.88;;;6.00;99.90;;;;;;5002968;28;20490;-49
2022/11/28 02:52:09;;;;;;;32.97;20.58;;;6.00;99.90;;;;;;5001915;28;20038;-52
2022/11/28 02:54:38;;;;;;;28.95;20.90;;;6.00;99.90;;;;;;5004027;28;20536;-51
2022/11/28 02:57:04;;;;;;;36.05;23.60;;;6.00;99.90;;;;;;5003257;28;20041;-49
2022/11/28 02:59:44;;;;;;;32.03;21.75;;;5.90;99.90;;;;;;5008533;28;20101;-48
2022/11/28 03:02:22;;;;;;;37.60;22.52;;;6.00;99.90;;;;;;5003086;28;20156;-53
2022/11/28 03:05:11;;;;;;;40.20;23.20;;;6.00;99.90;;;;;;5002234;28;20401;-51
2022/11/28 03:07:58;;;;;;;34.60;21.23;;;6.00;99.90;;;;;;5003707;28;20061;-51
2022/11/28 03:11:07;;;;;;;32.85;21.25;;;5.90;99.90;;;;;;4998381;28;20076;-51
2022/11/28 03:14:18;;;;;;;32.13;20.42;;;6.00;99.90;;;;;;4993037;28;20736;-51
2022/11/28 03:17:25;;;;;;;35.20;20.45;;;6.10;99.90;;;;;;4983630;28;20156;-52
2022/11/28 03:20:00;;;;;;;29.67;20.38;;;6.00;99.90;;;;;;5000994;28;20092;-50
2022/11/28 03:22:50;;;;;;;36.80;22.02;;;5.80;99.90;;;;;;5002359;28;20038;-50
2022/11/28 03:25:40;;;;;;;31.65;20.45;;;6.10;99.90;;;;;;5000975;28;20134;-53
2022/11/28 03:28:11;;;;;;;28.55;21.02;;;6.10;99.90;;;;;;4998707;28;20383;-51
2022/11/28 03:30:51;;;;;;;32.22;20.98;;;6.20;99.90;;;;;;5002803;28;20514;-54
2022/11/28 03:33:20;;;;;;;33.40;20.67;;;6.10;99.90;;;;;;5006051;28;20141;-53
2022/11/28 03:35:51;;;;;;;32.40;21.58;;;6.20;99.90;;;;;;5004082;28;20406;-50
2022/11/28 03:38:27;;;;;;;43.27;22.93;;;6.10;99.90;;;;;;5005787;28;20065;-55
2022/11/28 03:40:57;;;;;;;28.00;21.02;;;6.20;99.90;;;;;;5004982;28;20052;-54
2022/11/28 03:43:31;;;;;;;33.17;22.15;;;6.10;99.90;;;;;;5010440;28;20042;-53
2022/11/28 03:46:01;;;;;;;35.60;23.45;;;6.10;99.90;;;;;;5009247;28;20067;-53
2022/11/28 03:48:31;;;;;;;31.88;22.38;;;6.20;99.90;;;;;;5010949;28;20572;-50
2022/11/28 03:51:08;;;;;;;41.22;25.02;;;6.20;99.90;;;;;;5006868;28;20042;-54
2022/11/28 03:54:06;;;;;;;39.25;25.73;;;6.30;99.90;;;;;;5007191;28;20053;-51
2022/11/28 03:56:50;;;;;;;36.03;25.58;;;6.10;99.90;;;;;;5005660;28;20058;-52
2022/11/28 03:59:22;;;;;;;36.42;24.02;;;6.20;99.90;;;;;;5007233;28;20049;-51
2022/11/28 04:02:10;;;;;;;35.55;24.02;;;6.30;99.90;;;;;;5003540;28;20129;-51
2022/11/28 04:04:51;;;;;;;37.28;25.38;;;6.20;99.90;;;;;;5002110;28;20057;-51
2022/11/28 04:07:27;;;;;;;38.33;24.48;;;6.30;99.90;;;;;;5007596;28;20042;-52
2022/11/28 04:10:07;;;;;;;36.85;25.42;;;6.20;99.90;;;;;;5007533;28;20084;-52
2022/11/28 04:12:59;;;;;;;32.05;23.65;;;6.20;99.90;;;;;;5011293;28;20052;-52
2022/11/28 04:15:58;;;;;;;43.15;28.08;;;6.30;99.90;;;;;;4983268;28;20519;-53
2022/11/28 04:18:37;;;;;;;37.00;25.13;;;6.30;99.90;;;;;;5005638;28;20053;-48
2022/11/28 04:21:13;;;;;;;35.75;24.98;;;6.60;99.90;;;;;;5004224;28;20083;-50
2022/11/28 04:23:42;;;;;;;39.72;27.23;;;6.50;99.90;;;;;;5009050;28;20719;-49
2022/11/28 04:26:22;;;;;;;37.42;25.30;;;8.10;99.90;;;;;;5003148;28;20100;-53
2022/11/28 04:28:51;;;;;;;39.70;26.75;;;6.30;99.90;;;;;;5000451;28;20497;-49
2022/11/28 04:31:21;;;;;;;41.67;26.73;;;6.40;99.90;;;;;;5004566;28;20588;-53
2022/11/28 04:33:56;;;;;;;41.13;27.23;;;6.40;99.90;;;;;;5002975;28;20037;-53
2022/11/28 04:36:23;;;;;;;40.28;27.90;;;6.90;99.90;;;;;;5003643;28;20038;-48
2022/11/28 04:38:55;;;;;;;39.00;26.63;;;6.40;99.90;;;;;;5003764;28;20137;-50
2022/11/28 04:41:39;;;;;;;42.65;25.92;;;7.70;99.90;;;;;;5006155;28;20085;-50
2022/11/28 04:44:15;;;;;;;39.63;26.05;;;6.60;99.90;;;;;;5005676;28;20064;-52
2022/11/28 04:46:47;;;;;;;41.58;25.15;;;6.60;99.90;;;;;;5007062;28;20088;-52
2022/11/28 04:49:13;;;;;;;39.53;26.05;;;6.60;99.90;;;;;;5005764;28;20050;-49
2022/11/28 04:52:23;;;;;;;36.20;24.23;;;6.60;99.90;;;;;;5005666;28;20052;-51
2022/11/28 04:55:00;;;;;;;35.13;23.20;;;6.60;99.90;;;;;;4934322;28;20074;-49
2022/11/28 04:57:32;;;;;;;34.05;23.25;;;6.50;99.90;;;;;;5000299;28;20049;-54
2022/11/28 05:00:02;;;;;;;34.60;23.52;;;6.70;99.90;;;;;;5007123;28;20134;-48
2022/11/28 05:02:28;;;;;;;35.38;23.83;;;6.70;99.90;;;;;;5004159;28;20041;-51
2022/11/28 05:04:54;;;;;;;34.25;23.20;;;6.90;99.90;;;;;;5003021;28;22082;-53
2022/11/28 05:07:21;;;;;;;35.75;24.55;;;7.30;99.90;;;;;;5002871;28;20592;-53
2022/11/28 05:09:47;;;;;;;35.22;24.58;;;6.70;99.90;;;;;;5002104;28;20128;-51
2022/11/28 05:12:13;;;;;;;36.35;24.42;;;8.20;99.90;;;;;;5004206;28;20053;-55
2022/11/28 05:14:39;;;;;;;42.30;26.35;;;7.40;99.90;;;;;;5002441;28;20081;-50
2022/11/28 05:17:06;;;;;;;32.85;23.10;;;6.80;99.90;;;;;;5008446;28;20042;-52
2022/11/28 05:19:32;;;;;;;37.05;25.23;;;6.80;99.90;;;;;;5007468;28;20029;-52
2022/11/28 05:21:58;;;;;;;38.03;25.08;;;6.70;99.90;;;;;;5004471;28;20379;-53
2022/11/28 05:24:24;;;;;;;37.45;24.17;;;6.70;99.90;;;;;;5005548;28;20042;-53
2022/11/28 05:26:50;;;;;;;37.83;25.00;;;7.00;99.90;;;;;;5008585;28;20045;-52
2022/11/28 05:29:16;;;;;;;33.78;22.33;;;7.10;99.90;;;;;;5005293;28;20042;-51
2022/11/28 05:31:41;;;;;;;38.08;24.00;;;7.40;99.90;;;;;;5007347;28;20042;-52
2022/11/28 05:34:09;;;;;;;32.47;23.33;;;7.10;99.90;;;;;;5002446;28;20112;-50
2022/11/28 05:36:34;;;;;;;29.50;19.95;;;7.00;99.90;;;;;;5001192;28;20047;-53
2022/11/28 05:39:00;;;;;;;31.35;21.10;;;8.90;99.90;;;;;;5002977;28;20037;-53
2022/11/28 05:41:29;;;;;;;32.08;23.45;;;7.00;99.90;;;;;;5003239;28;20431;-53
2022/11/28 05:43:56;;;;;;;31.45;20.77;;;7.00;99.90;;;;;;5008005;28;20048;-53
2022/11/28 05:46:23;;;;;;;39.22;23.35;;;8.30;99.90;;;;;;5004267;28;20132;-53
2022/11/28 05:48:49;;;;;;;36.95;23.00;;;6.90;99.90;;;;;;5009912;28;20041;-53
2022/11/28 05:51:15;;;;;;;34.63;22.42;;;7.00;99.90;;;;;;5005480;28;20057;-54
2022/11/28 05:53:41;;;;;;;30.42;21.15;;;7.00;99.90;;;;;;5003661;28;20099;-53
2022/11/28 05:56:12;;;;;;;28.38;19.88;;;7.00;99.90;;;;;;5002020;28;20542;-54
2022/11/28 05:58:38;;;;;;;29.05;20.92;;;7.30;99.90;;;;;;4997994;28;21271;-55
2022/11/28 06:01:18;;;;;;;26.63;18.95;;;7.10;99.90;;;;;;5002702;28;20048;-55
2022/11/28 06:03:45;;;;;;;30.98;19.15;;;7.00;99.90;;;;;;5006976;28;20642;-52
2022/11/28 06:06:16;;;;;;;34.65;20.25;;;8.00;99.90;;;;;;5005076;28;20120;-54
2022/11/28 06:08:43;;;;;;;29.40;19.40;;;7.40;99.90;;;;;;4997499;28;20038;-52
2022/11/28 06:11:09;;;;;;;28.98;19.98;;;7.20;99.90;;;;;;5001699;28;20369;-52
2022/11/28 06:13:35;;;;;;;32.25;19.92;;;7.10;99.90;;;;;;5003686;28;21228;-54
2022/11/28 06:16:01;;;;;;;35.15;20.33;;;7.10;99.90;;;;;;5002693;28;20041;-49
2022/11/28 06:18:26;;;;;;;26.80;19.88;;;7.30;99.90;;;;;;5011177;28;20522;-51
2022/11/28 06:20:52;;;;;;;29.88;20.27;;;9.20;99.90;;;;;;5004107;28;20042;-51
2022/11/28 06:23:18;;;;;;;30.00;20.60;;;7.10;99.90;;;;;;5004859;28;20452;-53
2022/11/28 06:25:43;;;;;;;27.55;20.38;;;8.00;99.90;;;;;;5006723;28;20042;-51
2022/11/28 06:28:09;;;;;;;28.90;18.95;;;7.30;99.90;;;;;;5001650;28;20355;-54
2022/11/28 06:30:35;;;;;;;30.30;20.55;;;7.20;99.90;;;;;;5006589;28;20084;-53
2022/11/28 06:33:00;;;;;;;28.80;19.15;;;7.20;99.90;;;;;;4999355;28;20072;-51
2022/11/28 06:35:26;;;;;;;38.85;19.52;;;7.20;99.90;;;;;;5007550;28;20045;-55
2022/11/28 06:37:52;;;;;;;28.00;18.75;;;7.20;99.90;;;;;;5001557;28;20045;-56
2022/11/28 06:40:17;;;;;;;28.15;19.83;;;8.10;99.90;;;;;;5004296;28;20417;-55
2022/11/28 06:42:43;;;;;;;31.67;18.63;;;7.20;99.90;;;;;;5000305;28;20057;-54
2022/11/28 06:45:09;;;;;;;28.33;19.88;;;8.40;99.90;;;;;;5000822;28;20057;-54
2022/11/28 06:47:35;;;;;;;30.27;19.83;;;7.20;99.90;;;;;;5003782;28;20422;-54
2022/11/28 06:50:00;;;;;;;28.20;18.88;;;7.10;99.90;;;;;;5003622;28;20041;-55
2022/11/28 06:52:26;;;;;;;28.52;18.75;;;7.40;99.90;;;;;;5002653;28;20137;-53
2022/11/28 06:54:52;;;;;;;26.77;17.80;;;7.20;99.90;;;;;;5002588;28;20049;-56
2022/11/28 06:57:18;;;;;;;26.30;16.95;;;7.20;99.90;;;;;;5000765;28;20104;-52
2022/11/28 06:59:43;;;;;;;28.05;18.48;;;7.50;99.90;;;;;;5002883;28;20448;-54
2022/11/28 07:02:10;;;;;;;27.55;17.88;;;7.40;99.90;;;;;;4999145;28;20038;-53
2022/11/28 07:04:36;;;;;;;27.25;17.00;;;7.20;99.90;;;;;;5005082;28;20042;-53
2022/11/28 07:07:02;;;;;;;30.70;17.40;;;7.40;99.90;;;;;;5001615;28;20391;-53
2022/11/28 07:09:27;;;;;;;27.70;17.40;;;7.50;99.90;;;;;;5004812;28;20046;-52
2022/11/28 07:11:53;;;;;;;29.27;17.77;;;8.80;99.90;;;;;;4997729;28;20038;-53
2022/11/28 07:14:19;;;;;;;28.58;16.52;;;8.20;99.90;;;;;;4998879;28;20042;-54
2022/11/28 07:16:46;;;;;;;30.75;17.50;;;7.30;99.90;;;;;;4999923;28;20057;-53
2022/11/28 07:19:12;;;;;;;29.98;17.80;;;7.30;99.90;;;;;;5000982;28;20399;-51
2022/11/28 07:21:38;;;;;;;28.15;18.17;;;7.20;99.90;;;;;;5004879;28;20388;-53
2022/11/28 07:24:04;;;;;;;30.33;18.02;;;7.30;99.90;;;;;;5004639;28;20049;-50
2022/11/28 07:26:30;;;;;;;35.15;18.73;;;7.20;99.90;;;;;;5004874;28;20045;-52
2022/11/28 07:28:57;;;;;;;28.90;17.63;;;8.70;99.90;;;;;;5006772;28;20038;-51
2022/11/28 07:31:25;;;;;;;28.88;18.20;;;7.30;99.90;;;;;;5003676;28;20053;-52
2022/11/28 07:33:51;;;;;;;31.63;18.40;;;9.40;99.90;;;;;;5005001;28;20049;-54
2022/11/28 07:36:23;;;;;;;31.25;17.85;;;7.30;99.90;;;;;;5006427;28;20106;-52
2022/11/28 07:38:52;;;;;;;25.73;16.85;;;7.60;99.90;;;;;;5000673;28;20037;-55
2022/11/28 07:41:19;;;;;;;28.52;16.73;;;7.10;99.90;;;;;;4997437;28;20076;-49
2022/11/28 07:43:46;;;;;;;26.88;17.27;;;8.00;99.90;;;;;;5002885;28;20037;-49
2022/11/28 07:46:18;;;;;;;26.13;16.98;;;7.20;99.90;;;;;;4998716;28;20057;-54
2022/11/28 07:48:45;;;;;;;26.73;15.15;;;7.40;99.90;;;;;;5006607;28;20041;-50
2022/11/28 07:51:14;;;;;;;28.95;18.98;;;7.30;99.90;;;;;;4999725;28;20045;-52
2022/11/28 07:53:40;;;;;;;28.75;17.10;;;7.50;99.90;;;;;;5000972;28;20335;-49
2022/11/28 07:56:11;;;;;;;27.05;15.70;;;8.80;99.90;;;;;;5003467;28;20037;-54
2022/11/28 07:58:37;;;;;;;29.25;16.92;;;7.20;99.90;;;;;;5002181;28;20041;-52
2022/11/28 08:01:14;;;;;;;23.67;15.88;;;7.10;99.90;;;;;;5000880;28;20048;-52
2022/11/28 08:03:40;;;;;;;28.30;16.30;;;7.20;99.90;;;;;;4998066;28;20038;-52
2022/11/28 08:06:07;;;;;;;24.17;15.05;;;7.80;99.90;;;;;;4999146;28;20042;-50
2022/11/28 08:08:33;;;;;;;21.88;13.73;;;7.30;99.90;;;;;;5001130;28;20041;-51
2022/11/28 08:11:01;;;;;;;24.27;16.00;;;7.50;99.90;;;;;;5003506;28;20053;-50
2022/11/28 08:13:27;;;;;;;25.08;16.40;;;7.40;99.90;;;;;;4997674;28;20041;-54
2022/11/28 08:15:53;;;;;;;26.00;15.32;;;7.20;99.90;;;;;;5002679;28;20564;-55
2022/11/28 08:18:19;;;;;;;24.98;15.65;;;7.70;99.90;;;;;;5000558;28;21519;-52
2022/11/28 08:20:45;;;;;;;22.25;15.27;;;7.30;99.90;;;;;;5001443;28;20510;-51
2022/11/28 08:23:11;;;;;;;21.75;14.57;;;7.40;99.90;;;;;;4999236;28;20079;-52
2022/11/28 08:25:37;;;;;;;24.33;15.98;;;7.30;99.90;;;;;;5000994;28;20229;-49
2022/11/28 08:28:03;;;;;;;23.90;15.13;;;7.40;99.90;;;;;;5003192;28;20352;-54
2022/11/28 08:30:29;;;;;;;26.02;14.55;;;7.40;99.90;;;;;;5006606;28;20084;-52
2022/11/28 08:32:55;;;;;;;22.75;15.02;;;8.30;99.90;;;;;;5005763;28;20402;-54
2022/11/28 08:35:21;;;;;;;26.95;15.65;;;8.10;99.90;;;;;;5005909;28;20096;-55
2022/11/28 08:37:47;;;;;;;22.05;13.75;;;8.30;99.90;;;;;;5000858;28;20528;-51
2022/11/28 08:40:13;;;;;;;23.90;14.82;;;7.50;99.90;;;;;;5009060;28;20049;-53
2022/11/28 08:42:39;;;;;;;22.67;13.90;;;7.60;99.90;;;;;;5005310;28;20080;-52
2022/11/28 08:45:06;;;;;;;23.35;15.20;;;8.90;99.90;;;;;;5009670;28;20141;-50
2022/11/28 08:47:31;;;;;;;25.17;15.73;;;7.50;99.90;;;;;;5008233;28;20049;-52
2022/11/28 08:49:57;;;;;;;22.65;14.02;;;7.30;99.90;;;;;;5018066;28;20050;-52
2022/11/28 08:52:24;;;;;;;21.70;14.43;;;7.40;99.90;;;;;;5003267;28;20045;-53
2022/11/28 08:54:49;;;;;;;19.85;13.43;;;7.50;99.90;;;;;;5007552;28;20051;-54
2022/11/28 08:57:16;;;;;;;21.17;13.40;;;8.20;99.90;;;;;;5002492;28;20068;-52
2022/11/28 08:59:42;;;;;;;18.48;12.23;;;7.60;99.90;;;;;;5009145;28;20046;-51
2022/11/28 09:02:11;;;;;;;15.40;11.20;;;7.50;99.90;;;;;;5005789;28;20139;-51
2022/11/28 09:04:37;;;;;;;18.80;12.65;;;8.30;99.90;;;;;;5007453;28;20128;-53
2022/11/28 09:07:02;;;;;;;20.92;12.50;;;7.60;99.90;;;;;;5005090;28;20057;-52
2022/11/28 09:09:28;;;;;;;15.93;11.23;;;7.90;99.90;;;;;;5001301;28;20125;-52
2022/11/28 09:11:54;;;;;;;19.63;11.50;;;7.50;99.90;;;;;;5004455;28;20034;-54
2022/11/28 09:14:20;;;;;;;17.27;11.90;;;7.50;99.90;;;;;;5008103;28;20037;-51
2022/11/28 09:16:45;;;;;;;19.45;12.20;;;8.30;99.90;;;;;;5005010;28;20029;-53
2022/11/28 09:19:11;;;;;;;17.30;11.30;;;8.80;99.90;;;;;;5009539;28;20045;-51
2022/11/28 09:21:37;;;;;;;16.30;11.38;;;7.80;99.90;;;;;;5007995;28;20079;-53
2022/11/28 09:24:03;;;;;;;16.75;11.52;;;7.60;99.90;;;;;;5002219;28;20119;-53
2022/11/28 09:26:29;;;;;;;20.05;12.48;;;7.60;99.90;;;;;;5008701;28;20045;-53
2022/11/28 09:28:55;;;;;;;22.80;13.07;;;7.50;99.90;;;;;;5002471;28;20038;-52
2022/11/28 09:31:21;;;;;;;18.92;12.02;;;8.00;99.90;;;;;;5003302;28;20087;-52
2022/11/28 09:33:48;;;;;;;17.70;11.98;;;8.30;99.90;;;;;;5004386;28;20068;-54
2022/11/28 09:36:19;;;;;;;18.52;12.30;;;7.70;99.90;;;;;;5005345;28;20057;-54
2022/11/28 09:38:45;;;;;;;20.90;13.07;;;8.00;99.90;;;;;;5004121;28;20092;-55
2022/11/28 09:41:34;;;;;;;21.52;13.13;;;7.70;99.90;;;;;;5017993;28;20418;-53
2022/11/28 09:44:12;;;;;;;17.52;12.55;;;7.90;99.90;;;;;;4983999;28;20111;-53
2022/11/28 09:46:39;;;;;;;20.13;12.60;;;7.60;99.90;;;;;;5005898;28;20495;-54
2022/11/28 09:49:29;;;;;;;21.13;13.85;;;8.40;99.90;;;;;;5002548;28;20045;-52
2022/11/28 09:52:04;;;;;;;23.45;13.73;;;7.70;99.90;;;;;;5006803;28;20045;-54
2022/11/28 09:54:47;;;;;;;23.85;14.43;;;9.10;99.90;;;;;;5004109;28;20045;-54
2022/11/28 09:57:16;;;;;;;;;;;9.70;99.90;;;;;;5004857;28;20125;-54
2022/11/28 09:59:42;;;;;;;25.27;14.45;;;8.50;99.90;;;;;;5007040;28;19979;-55
2022/11/28 10:02:15;;;;;;;24.08;14.45;;;8.40;99.90;;;;;;5003697;28;20041;-55
2022/11/28 10:04:52;;;;;;;25.73;15.07;;;7.90;99.90;;;;;;5003293;28;20498;-53
2022/11/28 10:07:40;;;;;;;26.85;15.00;;;7.70;99.90;;;;;;5002943;28;20045;-53
2022/11/28 10:10:08;;;;;;;28.50;15.80;;;7.80;99.90;;;;;;5006774;28;20124;-52
2022/11/28 10:12:57;;;;;;;30.67;17.25;;;9.10;99.90;;;;;;5002392;28;20755;-55
2022/11/28 10:15:38;;;;;;;27.17;15.45;;;8.30;99.90;;;;;;4994351;28;20123;-53
2022/11/28 10:18:10;;;;;;;26.48;13.82;;;7.90;99.90;;;;;;5001858;28;20041;-54
2022/11/28 10:20:41;;;;;;;27.02;15.25;;;8.90;99.90;;;;;;4997318;28;20053;-53
2022/11/28 10:23:17;;;;;;;27.15;16.65;;;7.90;99.90;;;;;;5002913;28;21181;-54
2022/11/28 10:25:50;;;;;;;26.08;14.82;;;8.10;99.90;;;;;;5001737;28;20451;-55
2022/11/28 10:28:22;;;;;;;26.42;14.15;;;8.00;99.90;;;;;;5003798;28;20037;-52
2022/11/28 10:30:59;;;;;;;26.92;15.43;;;8.00;99.90;;;;;;5002502;28;20890;-54
2022/11/28 10:33:35;;;;;;;23.73;13.95;;;7.80;99.90;;;;;;5002643;28;20601;-54
2022/11/28 10:36:02;;;;;;;28.05;15.35;;;9.80;99.90;;;;;;5002737;28;20046;-54
2022/11/28 10:38:32;;;;;;;26.17;14.40;;;8.10;99.90;;;;;;5004327;28;20038;-55
2022/11/28 10:41:43;;;;;;;25.40;15.32;;;8.60;99.90;;;;;;5001397;28;20277;-48
2022/11/28 10:44:18;;;;;;;22.70;14.05;;;7.90;99.90;;;;;;4991795;28;21062;-52
2022/11/28 10:46:55;;;;;;;22.88;13.93;;;8.00;99.90;;;;;;5001445;28;20392;-50
2022/11/28 10:49:43;;;;;;;21.63;13.45;;;8.00;99.90;;;;;;5000357;28;20060;-48
2022/11/28 10:52:18;;;;;;;22.10;14.23;;;8.00;99.90;;;;;;4997394;28;20041;-50
2022/11/28 10:55:02;;;;;;;20.92;12.77;;;9.40;99.90;;;;;;5000289;28;20042;-48
2022/11/28 10:57:37;;;;;;;18.50;11.48;;;8.60;99.90;;;;;;5002319;28;20080;-47
2022/11/28 11:00:12;;;;;;;23.00;14.27;;;8.00;99.90;;;;;;5001410;28;20037;-52
2022/11/28 11:02:53;;;;;;;22.70;13.23;;;8.00;99.90;;;;;;5004592;28;20701;-49
2022/11/28 11:05:22;;;;;;;33.28;17.67;;;8.00;99.90;;;;;;5006090;28;20049;-48
2022/11/28 11:07:51;;;;;;;20.63;12.65;;;10.10;99.90;;;;;;5008569;28;22050;-51
2022/11/28 11:10:20;;;;;;;24.55;15.25;;;8.50;99.90;;;;;;5004661;28;20559;-52
2022/11/28 11:12:51;;;;;;;20.17;11.95;;;7.90;99.90;;;;;;5007708;28;20104;-50
2022/11/28 11:15:31;;;;;;;16.88;10.85;;;8.80;99.90;;;;;;5008391;28;20128;-49
2022/11/28 11:18:02;;;;;;;18.92;11.38;;;8.80;99.90;;;;;;5000476;28;20045;-53
2022/11/28 11:20:37;;;;;;;15.93;9.80;;;8.20;99.90;;;;;;5007997;28;20064;-49
2022/11/28 11:23:19;;;;;;;19.13;11.40;;;8.10;99.90;;;;;;5006652;28;20073;-51
2022/11/28 11:25:47;;;;;;;19.08;11.32;;;8.40;99.90;;;;;;5006374;28;20746;-50
2022/11/28 11:28:41;;;;;;;18.65;10.73;;;8.30;99.90;;;;;;4999481;28;20075;-49
2022/11/28 11:31:25;;;;;;;18.13;12.35;;;8.40;99.90;;;;;;5001781;28;20525;-52
2022/11/28 11:34:02;;;;;;;21.10;13.43;;;8.30;99.90;;;;;;5001192;28;20046;-54
2022/11/28 11:36:34;;;;;;;25.58;15.05;;;8.40;99.90;;;;;;5004796;28;20144;-52
2022/11/28 11:39:04;;;;;;;16.85;10.98;;;10.40;99.90;;;;;;5009013;28;20044;-53
2022/11/28 11:41:31;;;;;;;16.50;10.50;;;8.40;99.90;;;;;;5005510;28;20053;-52
2022/11/28 11:44:24;;;;;;;20.75;12.55;;;8.30;99.90;;;;;;5002912;28;20117;-52
2022/11/28 11:46:54;;;;;;;18.08;11.40;;;8.40;99.90;;;;;;5001492;28;20041;-54
2022/11/28 11:49:34;;;;;;;16.15;10.45;;;8.50;99.90;;;;;;4998764;28;20895;-49
2022/11/28 11:52:11;;;;;;;19.55;11.32;;;8.50;99.90;;;;;;5000524;28;20434;-52
2022/11/28 11:54:38;;;;;;;14.32;9.85;;;8.40;99.90;;;;;;4999678;28;20111;-52
2022/11/28 11:57:05;;;;;;;15.95;10.52;;;9.80;99.90;;;;;;4999871;28;20053;-49
2022/11/28 11:59:51;;;;;;;19.90;11.95;;;9.60;99.90;;;;;;5002727;28;20474;-50
2022/11/28 12:02:38;;;;;;;17.02;11.02;;;8.40;99.90;;;;;;5002834;28;20129;-52
2022/11/28 12:05:16;;;;;;;21.85;11.32;;;8.50;99.90;;;;;;5004430;28;20044;-50
2022/11/28 12:07:59;;;;;;;16.88;10.63;;;8.60;99.90;;;;;;5010363;28;20080;-49
2022/11/28 12:10:30;;;;;;;15.50;10.73;;;8.60;99.90;;;;;;5000971;28;20065;-52
2022/11/28 12:12:56;;;;;;;15.55;10.23;;;9.30;99.90;;;;;;5006073;28;20462;-51
2022/11/28 12:15:22;;;;;;;13.10;9.50;;;9.80;99.90;;;;;;5005247;28;20034;-51
2022/11/28 12:17:54;;;;;;;14.73;9.98;;;8.70;99.90;;;;;;5005592;28;20072;-51
2022/11/28 12:20:50;;;;;;;15.85;11.50;;;8.70;99.90;;;;;;5005658;28;20053;-50
2022/11/28 12:23:22;;;;;;;18.42;11.95;;;8.50;99.90;;;;;;5004781;28;20034;-52
2022/11/28 12:26:07;;;;;;;14.60;10.30;;;8.60;99.90;;;;;;5001513;28;20092;-53
2022/11/28 12:28:52;;;;;;;16.27;11.60;;;8.60;99.90;;;;;;5019391;28;20084;-52
2022/11/28 12:31:40;;;;;;;14.20;9.85;;;8.60;99.90;;;;;;4992338;28;20132;-53
2022/11/28 12:34:29;;;;;;;17.50;10.65;;;8.40;99.90;;;;;;5009995;28;20042;-51
2022/11/28 12:37:19;;;;;;;26.55;13.38;;;8.60;99.90;;;;;;5005247;28;20718;-52
2022/11/28 12:40:00;;;;;;;16.88;10.23;;;8.50;99.90;;;;;;5007491;28;20200;-52
2022/11/28 12:42:51;;;;;;;16.38;10.23;;;8.70;99.90;;;;;;5007304;28;20579;-52
2022/11/28 12:45:36;;;;;;;15.65;10.25;;;8.70;99.90;;;;;;5006727;28;20096;-52
2022/11/28 12:48:14;;;;;;;17.58;10.45;;;8.80;99.90;;;;;;5002435;28;20506;-52
2022/11/28 12:50:46;;;;;;;15.18;9.73;;;8.60;99.90;;;;;;5006332;28;20045;-52
2022/11/28 12:53:15;;;;;;;;;;;8.50;99.90;;;;;;5003989;28;20076;-50
2022/11/28 12:55:53;;;;;;;18.35;9.90;;;8.60;99.90;;;;;;5006287;28;19925;-50
2022/11/28 12:58:35;;;;;;;16.70;10.27;;;8.90;99.90;;;;;;5006191;28;20072;-54
2022/11/28 13:01:32;;;;;;;19.88;11.40;;;8.60;99.90;;;;;;5008129;28;20099;-53
2022/11/28 13:03:58;;;;;;;18.17;11.05;;;8.60;99.90;;;;;;5004921;28;20041;-53
2022/11/28 13:06:41;;;;;;;16.77;10.15;;;9.10;99.90;;;;;;5004533;28;20068;-53